Time;durP1;ratioP1;P1;durP2;ratioP2;P2;SDS_P1;SDS_P2;PMS_P1;PMS_P2;Temp;Humidity;BMP_temperature;BMP_pressure;BME280_temperature;BME280_humidity;BME280_pressure;Samples;Min_cycle;Max_cycle;Signal;HPM_P1;HPM_P2
2022/05/05 00:02:08;;;;;;;12.65;10.30;;;12.20;99.90;;;;;;4273233;28;10000502;-76
2022/05/05 00:04:34;;;;;;;13.77;9.95;;;12.10;99.90;;;;;;4958678;28;20015;-76
2022/05/05 00:07:03;;;;;;;15.15;10.90;;;12.10;99.90;;;;;;4962406;28;20067;-75
2022/05/05 00:09:29;;;;;;;16.95;12.43;;;12.10;99.90;;;;;;4957003;28;20541;-76
2022/05/05 00:14:40;;;;;;;17.75;11.75;;;12.10;99.90;;;;;;4955807;28;20900;-75
2022/05/05 00:17:08;;;;;;;16.92;10.90;;;12.10;99.90;;;;;;4961932;28;20019;-75
2022/05/05 00:19:35;;;;;;;19.63;11.95;;;12.00;99.90;;;;;;4962126;28;20015;-75
2022/05/05 00:22:02;;;;;;;18.83;11.38;;;11.90;99.90;;;;;;4962836;28;20161;-75
2022/05/05 00:24:28;;;;;;;14.13;11.45;;;11.90;99.90;;;;;;4961536;28;20104;-75
2022/05/05 00:26:54;;;;;;;13.20;10.40;;;11.80;99.90;;;;;;4957540;28;20455;-76
2022/05/05 00:29:20;;;;;;;15.60;10.98;;;11.70;99.90;;;;;;4953486;28;20019;-75
2022/05/05 00:31:46;;;;;;;14.13;11.50;;;11.60;99.90;;;;;;4953802;28;20022;-75
2022/05/05 00:34:13;;;;;;;16.45;11.45;;;11.60;99.90;;;;;;4957392;28;20132;-76
2022/05/05 00:36:38;;;;;;;19.52;13.07;;;11.50;99.90;;;;;;4955048;28;20030;-75
2022/05/05 00:39:05;;;;;;;18.30;12.55;;;11.50;99.90;;;;;;4957637;28;20031;-76
2022/05/05 00:41:33;;;;;;;16.23;11.98;;;11.50;99.90;;;;;;4957670;28;20031;-76
2022/05/05 00:43:59;;;;;;;15.13;11.15;;;11.50;99.90;;;;;;4961517;28;20030;-76
2022/05/05 00:46:25;;;;;;;15.23;11.38;;;11.60;99.90;;;;;;4958724;28;20423;-75
2022/05/05 00:48:50;;;;;;;16.58;11.55;;;11.60;99.90;;;;;;4965220;28;20043;-75
2022/05/05 00:51:16;;;;;;;17.65;11.90;;;11.50;99.90;;;;;;4961781;28;20368;-75
2022/05/05 00:53:42;;;;;;;17.80;11.98;;;11.50;99.90;;;;;;4959234;28;20031;-76
2022/05/05 00:56:11;;;;;;;16.50;11.68;;;11.40;99.90;;;;;;4963698;28;20027;-76
2022/05/05 00:58:38;;;;;;;15.77;12.27;;;11.40;99.90;;;;;;4955943;28;20038;-75
2022/05/05 01:01:05;;;;;;;18.52;12.70;;;11.50;99.90;;;;;;4960355;28;20102;-76
2022/05/05 01:03:33;;;;;;;15.07;11.23;;;11.50;99.90;;;;;;4960733;28;20490;-75
2022/05/05 01:05:58;;;;;;;13.60;10.90;;;11.60;99.90;;;;;;4962278;28;20081;-75
2022/05/05 01:08:24;;;;;;;13.15;10.75;;;11.60;99.90;;;;;;4963284;28;20063;-78
2022/05/05 01:10:49;;;;;;;13.40;9.95;;;11.50;99.90;;;;;;4958599;28;20578;-76
2022/05/05 01:13:15;;;;;;;15.25;11.23;;;11.50;99.90;;;;;;4963352;28;20299;-77
2022/05/05 01:15:41;;;;;;;16.67;12.27;;;11.40;99.90;;;;;;4962686;28;20030;-76
2022/05/05 01:18:07;;;;;;;16.95;12.20;;;11.40;99.90;;;;;;4968905;28;20030;-77
2022/05/05 01:20:43;;;;;;;17.58;12.60;;;11.40;99.90;;;;;;4956221;28;20034;-78
2022/05/05 01:23:10;;;;;;;22.23;12.75;;;11.30;99.90;;;;;;4968728;28;20023;-78
2022/05/05 01:28:20;;;;;;;21.48;14.18;;;11.40;99.90;;;;;;4962624;28;20085;-78
2022/05/05 01:30:48;;;;;;;22.27;14.48;;;11.40;99.90;;;;;;4959174;28;20046;-78
2022/05/05 01:33:14;;;;;;;23.00;14.43;;;11.40;99.90;;;;;;4967205;28;20045;-78
2022/05/05 01:35:41;;;;;;;17.25;13.55;;;11.40;99.90;;;;;;4961211;28;20027;-78
2022/05/05 01:38:12;;;;;;;17.70;13.13;;;11.30;99.90;;;;;;4962058;28;20046;-78
2022/05/05 01:40:57;;;;;;;19.10;13.20;;;11.30;99.90;;;;;;4962015;28;20355;-78
2022/05/05 01:43:22;;;;;;;18.15;12.43;;;11.30;99.90;;;;;;4963974;28;20089;-78
2022/05/05 01:45:48;;;;;;;17.35;13.50;;;11.30;99.90;;;;;;4962892;28;20035;-78
2022/05/05 01:48:14;;;;;;;16.90;13.18;;;11.40;99.90;;;;;;4957330;28;20035;-78
2022/05/05 01:50:40;;;;;;;17.13;12.70;;;11.30;99.90;;;;;;4965507;28;20038;-78
2022/05/05 01:53:06;;;;;;;17.35;12.45;;;11.30;99.90;;;;;;4962976;28;20085;-78
2022/05/05 01:55:33;;;;;;;17.75;12.38;;;11.30;99.90;;;;;;4966766;28;20027;-78
2022/05/05 01:58:00;;;;;;;19.73;13.18;;;11.30;99.90;;;;;;4963372;28;20034;-78
2022/05/05 02:00:26;;;;;;;17.50;12.40;;;11.30;99.90;;;;;;4955732;28;20129;-78
2022/05/05 02:02:52;;;;;;;18.05;13.68;;;11.30;99.90;;;;;;4964356;28;20034;-78
2022/05/05 02:05:18;;;;;;;17.95;13.27;;;11.30;99.90;;;;;;4958491;28;20037;-78
2022/05/05 02:07:45;;;;;;;23.25;15.05;;;11.20;99.90;;;;;;4967102;28;20033;-78
2022/05/05 02:10:16;;;;;;;18.52;13.85;;;11.10;99.90;;;;;;4960219;28;20106;-78
2022/05/05 02:12:43;;;;;;;18.85;13.73;;;11.10;99.90;;;;;;4958582;28;20039;-78
2022/05/05 02:15:10;;;;;;;20.15;13.63;;;11.00;99.90;;;;;;4962439;28;20026;-77
2022/05/05 02:17:36;;;;;;;18.67;13.80;;;10.90;99.90;;;;;;4960103;28;20023;-78
2022/05/05 02:20:05;;;;;;;20.35;13.93;;;10.90;99.90;;;;;;4961336;28;20065;-78
2022/05/05 02:22:31;;;;;;;18.48;13.38;;;10.90;99.90;;;;;;4966600;28;20045;-78
2022/05/05 02:24:57;;;;;;;21.02;14.38;;;10.80;99.90;;;;;;4962185;28;20027;-78
2022/05/05 02:27:23;;;;;;;17.25;13.70;;;10.70;99.90;;;;;;4956948;28;20114;-77
2022/05/05 02:29:49;;;;;;;19.45;14.40;;;10.70;99.90;;;;;;4960007;28;20031;-77
2022/05/05 02:32:16;;;;;;;20.98;14.27;;;10.60;99.90;;;;;;4961065;28;20035;-77
2022/05/05 02:34:41;;;;;;;20.90;15.27;;;10.60;99.90;;;;;;4963499;28;20526;-77
2022/05/05 02:39:53;;;;;;;20.90;14.43;;;10.50;99.90;;;;;;4954553;28;20042;-77
2022/05/05 02:42:20;;;;;;;21.65;14.75;;;10.40;99.90;;;;;;4954531;28;20034;-78
2022/05/05 02:44:45;;;;;;;20.70;15.70;;;10.50;99.90;;;;;;4957011;28;20637;-78
2022/05/05 02:47:11;;;;;;;18.27;14.20;;;10.50;99.90;;;;;;4963255;28;20062;-77
2022/05/05 02:49:37;;;;;;;19.05;14.13;;;10.50;99.90;;;;;;4962023;28;20049;-78
2022/05/05 02:52:04;;;;;;;19.48;14.23;;;10.50;99.90;;;;;;4966012;28;20030;-78
2022/05/05 02:57:14;;;;;;;20.10;14.98;;;10.30;99.90;;;;;;4960344;28;20038;-77
2022/05/05 02:59:41;;;;;;;20.00;14.57;;;10.20;99.90;;;;;;4950094;28;20027;-78
2022/05/05 03:02:07;;;;;;;19.88;14.65;;;10.10;99.90;;;;;;4953237;28;20100;-77
2022/05/05 03:04:33;;;;;;;20.23;15.15;;;10.00;99.90;;;;;;4954361;28;20033;-78
2022/05/05 03:06:59;;;;;;;22.83;14.82;;;10.00;99.90;;;;;;4958337;28;20114;-78
2022/05/05 03:09:24;;;;;;;22.80;15.98;;;9.90;99.90;;;;;;4954512;28;20182;-78
2022/05/05 03:11:50;;;;;;;19.90;15.23;;;10.00;99.90;;;;;;4958630;28;20026;-78
2022/05/05 03:14:15;;;;;;;20.45;14.20;;;10.00;99.90;;;;;;4958404;28;20034;-78
2022/05/05 03:16:41;;;;;;;20.92;14.27;;;9.90;99.90;;;;;;4961763;28;20487;-77
2022/05/05 03:19:06;;;;;;;25.40;14.93;;;9.90;99.90;;;;;;4964014;28;20390;-77
2022/05/05 03:21:32;;;;;;;21.08;14.80;;;9.90;99.90;;;;;;4958419;28;20034;-77
2022/05/05 03:23:58;;;;;;;20.60;15.30;;;10.00;99.90;;;;;;4963300;28;20439;-78
2022/05/05 03:26:24;;;;;;;20.45;15.88;;;10.00;99.90;;;;;;4960973;28;20133;-78
2022/05/05 03:28:50;;;;;;;20.88;15.05;;;10.10;99.90;;;;;;4961491;28;20666;-77
2022/05/05 03:31:15;;;;;;;23.35;16.15;;;10.10;99.90;;;;;;4953981;28;20039;-77
2022/05/05 03:33:41;;;;;;;21.08;14.98;;;10.10;99.90;;;;;;4957144;28;20039;-78
2022/05/05 03:36:06;;;;;;;20.25;14.23;;;10.10;99.90;;;;;;4959428;28;20034;-78
2022/05/05 03:38:32;;;;;;;22.25;14.85;;;10.00;99.90;;;;;;4960957;28;20549;-78
2022/05/05 03:40:58;;;;;;;22.27;16.00;;;10.10;99.90;;;;;;4959451;28;20034;-77
2022/05/05 03:43:23;;;;;;;25.52;16.00;;;10.10;99.90;;;;;;4960545;28;20114;-77
2022/05/05 03:45:49;;;;;;;24.77;16.15;;;10.20;99.90;;;;;;4959771;28;20087;-77
2022/05/05 03:48:15;;;;;;;20.02;14.52;;;10.20;99.90;;;;;;4958425;28;20031;-77
2022/05/05 03:50:40;;;;;;;21.00;15.00;;;10.20;99.90;;;;;;4949058;28;20215;-78
2022/05/05 03:53:06;;;;;;;19.80;14.90;;;10.10;99.90;;;;;;4950542;28;20380;-77
2022/05/05 03:55:32;;;;;;;19.38;14.30;;;10.10;99.90;;;;;;4952274;28;20413;-78
2022/05/05 03:57:57;;;;;;;18.00;14.05;;;9.90;99.90;;;;;;4951720;28;20467;-78
2022/05/05 04:00:23;;;;;;;21.75;15.73;;;9.80;99.90;;;;;;4959161;28;20031;-78
2022/05/05 04:05:34;;;;;;;22.55;15.50;;;9.80;99.90;;;;;;4962232;28;20037;-77
2022/05/05 04:08:04;;;;;;;21.05;15.45;;;9.90;99.90;;;;;;4960302;28;20105;-77
2022/05/05 04:10:30;;;;;;;22.42;16.23;;;9.90;99.90;;;;;;4951478;28;20653;-77
2022/05/05 04:12:56;;;;;;;21.63;15.93;;;9.90;99.90;;;;;;4952520;28;20027;-77
2022/05/05 04:15:22;;;;;;;22.00;15.68;;;9.80;99.90;;;;;;4965550;28;20042;-77
2022/05/05 04:17:48;;;;;;;19.50;14.43;;;9.70;99.90;;;;;;4961749;28;20033;-78
2022/05/05 04:20:13;;;;;;;20.73;14.48;;;9.50;99.90;;;;;;4963797;28;20027;-78
2022/05/05 04:22:39;;;;;;;21.75;15.57;;;9.40;99.90;;;;;;4959482;28;20427;-77
2022/05/05 04:25:05;;;;;;;22.25;16.02;;;9.30;99.90;;;;;;4960540;28;20367;-77
2022/05/05 04:27:35;;;;;;;27.80;17.98;;;9.20;99.90;;;;;;4957123;28;20409;-77
2022/05/05 04:30:02;;;;;;;24.70;16.88;;;9.20;99.90;;;;;;4961188;28;20087;-77
2022/05/05 04:32:28;;;;;;;21.70;16.27;;;9.30;99.90;;;;;;4963055;28;20037;-77
2022/05/05 04:34:54;;;;;;;23.30;16.10;;;9.20;99.90;;;;;;4964650;28;20043;-77
2022/05/05 04:37:20;;;;;;;23.80;17.20;;;9.20;99.90;;;;;;4962626;28;20480;-77
2022/05/05 04:39:46;;;;;;;20.40;15.40;;;9.20;99.90;;;;;;4957126;28;20031;-78
2022/05/05 04:42:12;;;;;;;21.73;16.90;;;9.30;99.90;;;;;;4956289;28;20410;-78
2022/05/05 04:44:37;;;;;;;26.15;16.90;;;9.30;99.90;;;;;;4968302;28;20075;-77
2022/05/05 04:47:03;;;;;;;24.52;17.45;;;9.40;99.90;;;;;;4988395;28;20026;-77
2022/05/05 04:49:30;;;;;;;24.27;16.98;;;9.40;99.90;;;;;;4965964;28;20042;-77
2022/05/05 04:51:56;;;;;;;22.20;17.45;;;9.50;99.90;;;;;;4966413;28;20035;-77
2022/05/05 04:54:22;;;;;;;25.60;16.73;;;9.50;99.90;;;;;;4963489;28;20046;-77
2022/05/05 04:56:47;;;;;;;23.35;17.77;;;9.50;99.90;;;;;;4965683;28;20048;-77
2022/05/05 04:59:13;;;;;;;28.52;19.20;;;9.60;99.90;;;;;;4963645;28;20046;-77
2022/05/05 05:01:39;;;;;;;27.83;19.65;;;9.70;99.90;;;;;;4957656;28;20049;-78
2022/05/05 05:04:06;;;;;;;29.48;19.40;;;9.70;99.90;;;;;;4959674;28;20462;-77
2022/05/05 05:06:32;;;;;;;28.90;19.35;;;9.80;99.90;;;;;;4969387;28;20034;-77
2022/05/05 05:08:58;;;;;;;31.75;19.02;;;9.90;99.90;;;;;;4955259;28;20034;-77
2022/05/05 05:11:24;;;;;;;32.38;19.90;;;10.00;99.90;;;;;;4952568;28;20410;-77
2022/05/05 05:13:50;;;;;;;30.52;18.75;;;10.10;99.90;;;;;;4964389;28;20035;-77
2022/05/05 05:16:16;;;;;;;26.38;18.48;;;10.20;99.90;;;;;;4968893;28;20031;-77
2022/05/05 05:18:41;;;;;;;27.63;18.50;;;10.30;99.90;;;;;;4961130;28;20384;-76
2022/05/05 05:21:07;;;;;;;27.15;18.00;;;10.40;99.90;;;;;;4957069;28;20046;-78
2022/05/05 05:23:33;;;;;;;30.90;18.55;;;10.50;99.90;;;;;;4955002;28;20034;-78
2022/05/05 05:25:58;;;;;;;25.90;16.88;;;10.60;99.90;;;;;;4947312;28;20038;-78
2022/05/05 05:28:25;;;;;;;25.52;17.17;;;10.70;99.90;;;;;;4964229;28;20038;-78
2022/05/05 05:30:51;;;;;;;29.20;18.05;;;10.80;99.90;;;;;;4959172;28;20129;-77
2022/05/05 05:33:17;;;;;;;29.20;17.55;;;10.80;99.90;;;;;;4963912;28;20121;-78
2022/05/05 05:35:44;;;;;;;23.90;17.38;;;10.90;99.90;;;;;;4958901;28;20058;-78
2022/05/05 05:38:11;;;;;;;25.92;17.00;;;11.00;99.90;;;;;;4963072;28;20479;-77
2022/05/05 05:40:36;;;;;;;27.75;17.55;;;11.00;99.90;;;;;;4962809;28;20031;-77
2022/05/05 05:43:02;;;;;;;24.63;17.92;;;11.10;99.90;;;;;;4953040;28;20042;-78
2022/05/05 05:45:28;;;;;;;24.65;17.42;;;11.20;99.90;;;;;;4951532;28;20041;-78
2022/05/05 05:47:54;;;;;;;24.67;17.63;;;11.30;99.90;;;;;;4955531;28;20035;-78
2022/05/05 05:50:20;;;;;;;26.67;17.73;;;11.40;99.90;;;;;;4964239;28;20050;-78
2022/05/05 05:52:46;;;;;;;23.10;16.05;;;11.50;99.90;;;;;;4958814;28;20031;-78
2022/05/05 05:55:11;;;;;;;26.13;16.15;;;11.60;99.90;;;;;;4963467;28;20403;-78
2022/05/05 05:57:37;;;;;;;23.08;16.27;;;11.70;99.90;;;;;;4967424;28;20031;-79
2022/05/05 06:00:03;;;;;;;24.23;16.63;;;11.80;99.90;;;;;;4958727;28;20027;-79
2022/05/05 06:05:13;;;;;;;25.75;16.17;;;11.90;99.90;;;;;;4962535;28;20678;-78
2022/05/05 06:07:38;;;;;;;27.35;16.70;;;12.00;99.90;;;;;;4967834;28;20043;-78
2022/05/05 06:10:05;;;;;;;26.00;16.88;;;12.10;99.90;;;;;;4958068;28;20035;-78
2022/05/05 06:12:31;;;;;;;23.50;16.48;;;12.10;99.90;;;;;;4962835;28;20088;-78
2022/05/05 06:14:56;;;;;;;21.10;15.32;;;12.10;99.90;;;;;;4963129;28;20031;-78
2022/05/05 06:17:22;;;;;;;21.35;15.90;;;12.10;99.90;;;;;;4964029;28;20486;-78
2022/05/05 06:19:48;;;;;;;24.77;16.55;;;12.10;99.90;;;;;;4953865;28;20038;-78
2022/05/05 06:22:13;;;;;;;21.85;15.32;;;12.10;99.90;;;;;;4957234;28;20484;-78
2022/05/05 06:24:39;;;;;;;23.95;16.23;;;12.10;99.90;;;;;;4965250;28;20026;-78
2022/05/05 06:27:05;;;;;;;22.52;15.77;;;12.10;99.90;;;;;;4958497;28;20035;-79
2022/05/05 06:29:30;;;;;;;26.80;17.83;;;12.10;99.90;;;;;;4960770;28;20549;-78
2022/05/05 06:31:56;;;;;;;22.08;16.35;;;12.00;99.90;;;;;;4973602;28;20026;-78
2022/05/05 06:34:23;;;;;;;22.40;16.90;;;12.00;99.90;;;;;;4950893;28;20499;-78
2022/05/05 06:36:48;;;;;;;23.92;16.77;;;11.90;99.90;;;;;;4945034;28;20070;-78
2022/05/05 06:39:14;;;;;;;22.20;16.13;;;12.00;99.90;;;;;;4956209;28;20565;-78
2022/05/05 06:41:40;;;;;;;23.35;16.20;;;12.10;99.90;;;;;;4960215;28;20431;-79
2022/05/05 06:44:06;;;;;;;25.67;16.13;;;12.20;99.90;;;;;;4955293;28;20535;-79
2022/05/05 06:46:32;;;;;;;22.08;15.40;;;12.30;99.90;;;;;;4956185;28;20042;-78
2022/05/05 06:48:58;;;;;;;20.85;15.45;;;12.60;99.90;;;;;;4960304;28;20089;-78
2022/05/05 06:51:24;;;;;;;21.83;15.30;;;12.90;99.90;;;;;;4965811;28;20042;-78
2022/05/05 06:53:49;;;;;;;29.55;15.32;;;13.10;99.90;;;;;;4961097;28;20035;-75
2022/05/05 06:56:15;;;;;;;20.10;14.32;;;13.60;99.90;;;;;;4964033;28;20478;-77
2022/05/05 06:58:40;;;;;;;22.10;14.48;;;13.60;99.90;;;;;;4960924;28;20359;-78
2022/05/05 07:05:23;;;;;;;17.80;13.35;;;14.20;99.90;;;;;;4958203;28;20070;-81
2022/05/05 07:06:36;;;;;;;21.55;14.65;;;14.50;99.90;;;;;;4958265;28;20890;-82
2022/05/05 07:11:45;;;;;;;20.27;13.80;;;15.00;99.90;;;;;;4960397;28;20038;-81
2022/05/05 07:14:12;;;;;;;18.63;13.10;;;15.30;99.90;;;;;;4960050;28;20034;-80
2022/05/05 07:16:37;;;;;;;17.77;12.30;;;15.50;99.90;;;;;;4966637;28;20023;-81
2022/05/05 07:19:04;;;;;;;17.25;11.98;;;15.70;99.90;;;;;;4958482;28;20198;-80
2022/05/05 07:21:30;;;;;;;20.42;12.43;;;15.80;99.90;;;;;;4952757;28;20105;-81
2022/05/05 07:23:56;;;;;;;18.38;11.20;;;15.80;99.90;;;;;;4962967;28;20353;-81
2022/05/05 07:26:22;;;;;;;18.92;11.80;;;16.00;99.90;;;;;;4948301;28;20035;-81
2022/05/05 07:28:47;;;;;;;15.73;10.80;;;16.00;99.90;;;;;;4950254;28;20031;-83
2022/05/05 07:31:13;;;;;;;19.77;11.75;;;16.20;99.90;;;;;;4956866;28;20030;-79
2022/05/05 07:33:38;;;;;;;16.02;9.88;;;16.20;99.90;;;;;;4957555;28;20019;-80
2022/05/05 07:36:04;;;;;;;17.25;10.27;;;16.40;99.90;;;;;;4962124;28;20035;-76
2022/05/05 07:38:30;;;;;;;15.35;9.90;;;16.70;99.90;;;;;;4963968;28;20178;-75
2022/05/05 07:40:56;;;;;;;21.98;11.57;;;16.80;99.90;;;;;;4954840;28;20110;-76
2022/05/05 07:43:23;;;;;;;16.63;10.10;;;16.90;99.90;;;;;;4956081;28;20038;-77
2022/05/05 07:45:49;;;;;;;14.52;10.38;;;17.00;99.90;;;;;;4955602;28;20130;-74
2022/05/05 07:48:15;;;;;;;18.95;11.10;;;17.00;99.90;;;;;;4961722;28;20153;-75
2022/05/05 07:50:40;;;;;;;17.90;11.05;;;17.00;99.90;;;;;;4955280;28;20089;-76
2022/05/05 07:53:06;;;;;;;19.70;11.13;;;17.00;99.90;;;;;;4955461;28;20069;-78
2022/05/05 07:55:32;;;;;;;19.33;12.00;;;17.00;99.90;;;;;;4955598;28;20031;-75
2022/05/05 07:57:57;;;;;;;17.42;10.88;;;16.90;99.90;;;;;;4963917;28;20434;-77
2022/05/05 08:00:23;;;;;;;18.42;10.20;;;16.90;99.90;;;;;;4959946;28;20088;-75
2022/05/05 08:02:49;;;;;;;12.95;9.23;;;17.00;99.90;;;;;;4956214;28;20026;-77
2022/05/05 08:05:15;;;;;;;25.10;10.98;;;17.10;99.90;;;;;;4961838;28;20057;-77
2022/05/05 08:07:45;;;;;;;19.00;10.75;;;17.10;99.90;;;;;;4963894;28;20093;-81
2022/05/05 08:10:11;;;;;;;13.27;9.55;;;17.20;99.90;;;;;;4960294;28;20035;-82
2022/05/05 08:12:37;;;;;;;15.15;9.05;;;17.20;99.90;;;;;;4958304;28;20038;-80
2022/05/05 08:15:04;;;;;;;15.10;9.88;;;17.30;99.90;;;;;;4966060;28;20525;-79
2022/05/05 08:17:32;;;;;;;15.55;9.27;;;17.40;99.90;;;;;;4960455;28;20475;-77
2022/05/05 08:19:59;;;;;;;13.57;9.50;;;17.40;99.90;;;;;;4966654;28;20113;-78
2022/05/05 08:22:25;;;;;;;15.50;10.27;;;17.50;99.90;;;;;;4965054;28;20037;-77
2022/05/05 08:30:18;;;;;;;18.60;10.90;;;17.50;99.90;;;;;;4961118;28;20546;-78
2022/05/05 08:32:44;;;;;;;16.98;9.75;;;17.60;99.90;;;;;;4967516;28;20042;-78
2022/05/05 08:35:10;;;;;;;13.70;9.82;;;17.60;99.90;;;;;;4961053;28;20065;-79
2022/05/05 08:37:35;;;;;;;14.27;9.43;;;17.70;99.90;;;;;;4961493;28;20023;-76
2022/05/05 08:40:02;;;;;;;14.55;10.05;;;17.80;99.70;;;;;;4963434;28;20038;-77
2022/05/05 08:42:28;;;;;;;13.27;9.40;;;18.00;99.40;;;;;;4965580;28;20026;-79
2022/05/05 08:44:53;;;;;;;16.60;9.95;;;18.00;99.40;;;;;;4965480;28;20026;-75
2022/05/05 08:47:23;;;;;;;15.50;9.48;;;18.10;99.00;;;;;;4969896;28;20038;-79
2022/05/05 08:49:49;;;;;;;19.58;10.05;;;18.30;99.30;;;;;;4965680;28;20053;-78
2022/05/05 08:52:18;;;;;;;15.88;10.05;;;18.50;99.00;;;;;;4966485;28;20375;-76
2022/05/05 08:54:46;;;;;;;16.73;10.45;;;18.50;99.00;;;;;;4969225;28;20038;-78
2022/05/05 08:57:11;;;;;;;16.95;9.75;;;18.50;99.30;;;;;;4968269;28;20054;-81
2022/05/05 08:59:37;;;;;;;16.50;10.75;;;18.40;98.90;;;;;;4959895;28;20086;-79
2022/05/05 09:02:03;;;;;;;16.92;10.38;;;18.50;98.60;;;;;;4954786;28;20113;-75
2022/05/05 09:04:28;;;;;;;15.75;9.98;;;18.50;97.50;;;;;;4963707;28;20053;-76
2022/05/05 09:06:54;;;;;;;16.52;10.40;;;18.60;97.80;;;;;;4960030;28;20046;-78
2022/05/05 09:09:24;;;;;;;17.77;9.93;;;18.60;98.10;;;;;;4964380;28;20057;-79
2022/05/05 09:12:10;;;;;;;14.23;9.68;;;18.60;98.00;;;;;;4962768;28;20035;-77
2022/05/05 09:14:46;;;;;;;15.88;10.32;;;18.60;97.60;;;;;;4958403;28;20031;-77
2022/05/05 09:17:16;;;;;;;16.92;10.55;;;18.60;97.50;;;;;;4961386;28;20513;-76
2022/05/05 09:19:47;;;;;;;17.52;10.48;;;18.70;97.60;;;;;;4961265;28;20539;-77
2022/05/05 09:22:14;;;;;;;17.05;10.40;;;18.40;97.90;;;;;;4958483;28;20031;-77
2022/05/05 09:24:45;;;;;;;13.98;9.88;;;18.20;97.30;;;;;;4963223;28;20094;-75
2022/05/05 09:27:29;;;;;;;18.00;10.02;;;18.00;98.10;;;;;;4964322;28;20279;-79
2022/05/05 09:30:09;;;;;;;16.92;9.30;;;17.80;98.30;;;;;;4960532;28;20027;-78
2022/05/05 09:32:37;;;;;;;19.17;10.70;;;17.60;98.20;;;;;;4957027;28;20041;-77
2022/05/05 09:35:15;;;;;;;17.00;9.90;;;17.60;98.70;;;;;;4959685;28;20437;-75
2022/05/05 09:37:48;;;;;;;14.45;9.10;;;17.60;98.00;;;;;;4958895;28;20888;-82
2022/05/05 09:40:18;;;;;;;14.85;9.38;;;17.60;97.00;;;;;;4965216;28;20679;-80
2022/05/05 09:42:52;;;;;;;14.35;8.90;;;17.60;97.80;;;;;;4967262;28;20077;-76
2022/05/05 09:45:22;;;;;;;12.93;8.50;;;17.60;97.20;;;;;;4975728;28;20026;-76
2022/05/05 09:47:51;;;;;;;12.50;9.43;;;17.70;97.50;;;;;;4964645;28;20031;-76
2022/05/05 09:50:20;;;;;;;17.00;10.05;;;17.70;96.30;;;;;;4964428;28;20130;-76
2022/05/05 09:58:17;;;;;;;14.32;9.55;;;18.60;95.30;;;;;;4960835;28;20045;-76
2022/05/05 10:00:49;;;;;;;13.63;9.13;;;18.70;94.20;;;;;;4965129;28;20374;-76
2022/05/05 10:06:18;;;;;;;17.77;9.75;;;18.60;93.50;;;;;;4960504;28;20399;-76
2022/05/05 10:08:45;;;;;;;13.95;9.68;;;18.30;96.30;;;;;;4958142;28;20224;-76
2022/05/05 10:11:14;;;;;;;13.90;9.32;;;18.20;96.10;;;;;;4959755;28;20039;-75
2022/05/05 10:13:40;;;;;;;16.30;9.50;;;18.00;95.50;;;;;;4955578;28;20178;-76
2022/05/05 10:16:07;;;;;;;15.55;9.57;;;18.00;95.00;;;;;;4973859;28;20373;-75
2022/05/05 10:18:39;;;;;;;18.75;10.10;;;17.80;95.90;;;;;;4966078;28;20042;-75
2022/05/05 10:21:07;;;;;;;14.98;9.60;;;17.70;95.00;;;;;;4959382;28;20105;-76
2022/05/05 10:23:57;;;;;;;16.33;8.73;;;17.60;94.90;;;;;;4962640;28;20102;-76
2022/05/05 10:26:24;;;;;;;19.65;9.60;;;17.40;94.20;;;;;;4953406;28;20038;-76
2022/05/05 10:28:50;;;;;;;16.17;8.63;;;17.30;96.60;;;;;;4963090;28;20034;-76
2022/05/05 10:31:31;;;;;;;16.20;9.55;;;17.20;96.30;;;;;;4964586;28;20491;-75
2022/05/05 10:34:00;;;;;;;24.67;9.38;;;17.20;96.50;;;;;;4957697;28;20030;-76
2022/05/05 10:36:27;;;;;;;26.67;10.45;;;17.20;97.00;;;;;;4961278;28;20391;-76
2022/05/05 10:38:54;;;;;;;17.20;9.98;;;17.40;99.00;;;;;;4958846;28;20042;-76
2022/05/05 10:41:42;;;;;;;14.45;9.05;;;17.40;97.90;;;;;;4956742;28;20025;-75
2022/05/05 10:44:16;;;;;;;14.68;9.30;;;17.80;95.90;;;;;;4961061;28;20402;-76
2022/05/05 10:46:54;;;;;;;15.25;8.32;;;18.10;94.30;;;;;;4965717;28;20162;-75
2022/05/05 10:52:09;;;;;;;10.85;6.95;;;18.90;91.10;;;;;;4946505;28;20382;-76
2022/05/05 10:54:36;;;;;;;12.05;7.20;;;19.30;88.90;;;;;;4954478;28;20704;-76
2022/05/05 10:57:26;;;;;;;13.15;6.93;;;19.50;86.80;;;;;;4960660;28;20034;-75
2022/05/05 11:00:19;;;;;;;8.07;6.00;;;19.70;84.70;;;;;;4952393;28;20460;-76
2022/05/05 11:03:00;;;;;;;9.98;6.75;;;19.80;82.10;;;;;;4951255;28;20414;-75
2022/05/05 11:05:31;;;;;;;11.02;6.65;;;19.70;82.80;;;;;;4963674;28;20513;-77
2022/05/05 11:08:09;;;;;;;11.98;7.03;;;19.70;84.90;;;;;;4607269;28;10000340;-77
2022/05/05 11:10:41;;;;;;;11.77;6.53;;;19.60;88.90;;;;;;4962512;28;20422;-77
2022/05/05 11:13:07;;;;;;;11.27;6.43;;;19.40;86.30;;;;;;4959158;28;20089;-78
2022/05/05 11:21:33;;;;;;;12.68;6.60;;;19.10;91.10;;;;;;4958709;28;20413;-77
2022/05/05 11:24:03;;;;;;;13.77;6.67;;;18.90;87.10;;;;;;4961401;28;20033;-77
2022/05/05 11:26:29;;;;;;;12.98;6.93;;;18.70;91.60;;;;;;4958111;28;20286;-78
2022/05/05 11:28:58;;;;;;;11.60;6.55;;;18.40;90.30;;;;;;4959644;28;20169;-78
2022/05/05 11:31:29;;;;;;;13.27;6.53;;;18.30;91.50;;;;;;4957597;28;20038;-77
2022/05/05 11:33:55;;;;;;;12.32;6.70;;;18.20;92.30;;;;;;4958978;28;20113;-77
2022/05/05 11:36:28;;;;;;;8.73;5.60;;;18.20;92.20;;;;;;4957044;28;20026;-79
2022/05/05 11:38:55;;;;;;;12.45;5.70;;;18.20;91.30;;;;;;4959235;28;20565;-78
2022/05/05 11:41:21;;;;;;;12.93;6.13;;;18.50;90.70;;;;;;4955562;28;20106;-76
2022/05/05 11:46:32;;;;;;;10.05;5.88;;;18.70;90.10;;;;;;4956877;28;20112;-83
2022/05/05 11:48:58;;;;;;;10.63;5.88;;;18.80;90.20;;;;;;4951085;28;20105;-77
2022/05/05 11:51:27;;;;;;;7.82;5.03;;;18.80;88.60;;;;;;4951793;28;20031;-83
2022/05/05 11:54:11;;;;;;;10.25;5.35;;;18.80;83.70;;;;;;4958942;28;20482;-79
2022/05/05 11:56:43;;;;;;;13.20;5.85;;;18.80;86.60;;;;;;4963535;28;20057;-79
2022/05/05 12:02:04;;;;;;;12.13;5.80;;;19.00;85.70;;;;;;4957441;28;20049;-81
2022/05/05 12:04:32;;;;;;;7.78;4.60;;;19.10;88.60;;;;;;4957668;28;20545;-80
2022/05/05 12:06:59;;;;;;;12.55;5.55;;;19.30;89.90;;;;;;4956220;28;20110;-78
2022/05/05 12:09:25;;;;;;;9.98;5.75;;;19.40;86.30;;;;;;4962806;28;20054;-81
2022/05/05 12:11:51;;;;;;;9.57;5.43;;;19.50;83.00;;;;;;4958796;28;20027;-80
2022/05/05 12:14:22;;;;;;;8.23;4.95;;;19.70;82.00;;;;;;4961320;28;20694;-81
2022/05/05 12:16:48;;;;;;;6.63;4.75;;;19.80;82.50;;;;;;4957793;28;20105;-80
2022/05/05 12:19:17;;;;;;;11.18;5.43;;;19.90;76.10;;;;;;4960404;28;20223;-81
2022/05/05 12:21:54;;;;;;;8.68;4.70;;;20.00;79.30;;;;;;4958379;28;20111;-82
2022/05/05 12:24:24;;;;;;;9.40;4.63;;;19.90;83.10;;;;;;4954049;28;20063;-81
2022/05/05 12:27:11;;;;;;;7.43;4.43;;;19.70;80.40;;;;;;4954769;28;20039;-75
2022/05/05 12:29:46;;;;;;;6.80;4.13;;;19.70;83.60;;;;;;4954558;28;20042;-77
2022/05/05 12:32:19;;;;;;;6.63;3.90;;;19.60;77.90;;;;;;4959543;28;20166;-76
2022/05/05 12:34:45;;;;;;;9.05;4.13;;;19.70;79.50;;;;;;4961559;28;20463;-81
2022/05/05 12:37:11;;;;;;;8.15;3.90;;;19.70;79.90;;;;;;4952113;28;20093;-79
2022/05/05 12:39:55;;;;;;;5.35;3.33;;;19.80;76.30;;;;;;4960592;28;20546;-80
2022/05/05 12:42:22;;;;;;;8.75;3.58;;;20.00;72.90;;;;;;4953183;28;20027;-77
2022/05/05 12:44:49;;;;;;;6.43;3.08;;;20.10;71.60;;;;;;4958988;28;20042;-79
2022/05/05 12:47:22;;;;;;;6.57;3.80;;;20.30;73.40;;;;;;4959656;28;20503;-84
2022/05/05 12:49:48;;;;;;;6.80;2.83;;;20.50;75.00;;;;;;4959602;28;20142;-83
2022/05/05 13:00:26;;;;;;;6.95;3.22;;;20.90;70.70;;;;;;4954631;28;20090;-84
2022/05/05 13:02:52;;;;;;;7.88;3.25;;;20.90;69.60;;;;;;4958950;28;20031;-83
2022/05/05 13:05:18;;;;;;;4.95;3.00;;;20.80;70.90;;;;;;4960103;28;20480;-82
2022/05/05 13:07:44;;;;;;;4.85;3.22;;;20.90;70.30;;;;;;4953960;28;20141;-80
2022/05/05 13:10:10;;;;;;;4.05;2.55;;;20.90;67.50;;;;;;4961256;28;20041;-77
2022/05/05 13:12:36;;;;;;;7.57;3.33;;;21.10;64.60;;;;;;4962023;28;20111;-78
2022/05/05 13:15:01;;;;;;;6.18;3.30;;;21.30;65.40;;;;;;4961784;28;20027;-78
2022/05/05 13:17:29;;;;;;;6.63;3.67;;;21.40;70.40;;;;;;4958551;28;20606;-80
2022/05/05 13:19:54;;;;;;;5.38;3.25;;;20.90;70.30;;;;;;4958912;28;20597;-78
2022/05/05 13:22:20;;;;;;;5.60;3.15;;;20.80;68.90;;;;;;4957136;28;20399;-80
2022/05/05 13:24:46;;;;;;;9.23;3.13;;;20.70;70.50;;;;;;4953363;28;20114;-79
2022/05/05 13:27:12;;;;;;;5.25;3.17;;;20.70;67.80;;;;;;4953908;28;20376;-79
2022/05/05 13:29:37;;;;;;;7.82;3.70;;;20.60;69.90;;;;;;4957809;28;20058;-81
2022/05/05 13:32:03;;;;;;;10.15;3.25;;;20.50;71.90;;;;;;4958256;28;20248;-80
2022/05/05 13:34:29;;;;;;;7.70;3.53;;;20.50;74.40;;;;;;4959613;28;20038;-79